Portada
METAR-TAF:

METAR-TAF

Aeroports :

Capo Mele

Andora, Itàlia

latitud: 43-57N, longitud: 008-10E, altitud: 220 m

Observació

L'informe es va fer fa 32 minuts, a les 12:55 UTC
Vent 7 kt del Est/Nord-Est
Temperatura 26°C
Humitat 74%
Pressió 1020 hPa
Visibilitat 10 km o més
Escasses núvols a una alçada de 1500 ft

METAR: LIMU 201255Z 07007KT 9999 FEW015 26/21 Q1020 RMK FEW QUK 2 QUL 1 E VIS MAR 20 KM VIS MIN 9999

Hora: 15:27 (13:27 UTC)


TAF: manca

Observacions i pronòstics meteorològics de més de 4000 aeroports (METAR i TAF).

Les estacions disponibles són els punts grocs i vermells al mapa.

Posi el ratolí al punt desitjat per veure el nom de l'estació.

Feu clic per veure les observacions i els pronòstics meteorològics.

Per canviar el mapa: feu clic els botons verds amb una creu de color negre per apropar; al botó verd amb un guió per allunyar la imatge; o en les fletxes verdes per a mapes adjacents.


METAR-TAF: